sensor_id;sensor_type;location;lat;lon;timestamp;P1;durP1;ratioP1;P2;durP2;ratioP2
41815;SDS011;27814;53.452;-6.180;2022-09-04T00:01:13;4.80;;;1.30;;
41815;SDS011;27814;53.452;-6.180;2022-09-04T00:03:49;6.38;;;1.15;;
41815;SDS011;27814;53.452;-6.180;2022-09-04T00:06:25;5.63;;;1.10;;
41815;SDS011;27814;53.452;-6.180;2022-09-04T00:09:02;7.10;;;1.38;;
41815;SDS011;27814;53.452;-6.180;2022-09-04T00:11:41;7.15;;;1.40;;
41815;SDS011;27814;53.452;-6.180;2022-09-04T00:14:18;5.88;;;1.00;;
41815;SDS011;27814;53.452;-6.180;2022-09-04T00:16:49;5.00;;;1.20;;
41815;SDS011;27814;53.452;-6.180;2022-09-04T00:19:25;5.03;;;1.65;;
41815;SDS011;27814;53.452;-6.180;2022-09-04T00:21:59;8.87;;;1.63;;
41815;SDS011;27814;53.452;-6.180;2022-09-04T00:24:31;6.30;;;1.63;;
41815;SDS011;27814;53.452;-6.180;2022-09-04T00:27:04;5.60;;;1.45;;
41815;SDS011;27814;53.452;-6.180;2022-09-04T00:29:40;7.05;;;1.92;;
41815;SDS011;27814;53.452;-6.180;2022-09-04T00:32:16;5.70;;;2.03;;
41815;SDS011;27814;53.452;-6.180;2022-09-04T00:34:55;7.00;;;1.55;;
41815;SDS011;27814;53.452;-6.180;2022-09-04T00:37:31;4.40;;;1.40;;
41815;SDS011;27814;53.452;-6.180;2022-09-04T00:40:05;4.85;;;1.20;;
41815;SDS011;27814;53.452;-6.180;2022-09-04T00:42:41;3.67;;;1.20;;
41815;SDS011;27814;53.452;-6.180;2022-09-04T00:45:37;3.50;;;0.77;;
41815;SDS011;27814;53.452;-6.180;2022-09-04T00:51:24;3.05;;;0.60;;
41815;SDS011;27814;53.452;-6.180;2022-09-04T00:54:15;5.72;;;0.80;;
41815;SDS011;27814;53.452;-6.180;2022-09-04T01:00:03;5.18;;;1.00;;
41815;SDS011;27814;53.452;-6.180;2022-09-04T01:02:46;2.05;;;0.77;;
41815;SDS011;27814;53.452;-6.180;2022-09-04T01:05:28;3.05;;;0.77;;
41815;SDS011;27814;53.452;-6.180;2022-09-04T01:08:09;1.90;;;0.70;;
41815;SDS011;27814;53.452;-6.180;2022-09-04T01:10:50;2.83;;;0.82;;
41815;SDS011;27814;53.452;-6.180;2022-09-04T01:13:30;1.95;;;0.50;;
41815;SDS011;27814;53.452;-6.180;2022-09-04T01:16:08;2.83;;;1.00;;
41815;SDS011;27814;53.452;-6.180;2022-09-04T01:18:46;2.95;;;1.20;;
41815;SDS011;27814;53.452;-6.180;2022-09-04T01:21:23;8.07;;;1.90;;
41815;SDS011;27814;53.452;-6.180;2022-09-04T01:24:21;7.85;;;2.33;;
41815;SDS011;27814;53.452;-6.180;2022-09-04T01:27:02;9.70;;;2.88;;
41815;SDS011;27814;53.452;-6.180;2022-09-04T01:29:38;6.67;;;2.30;;
41815;SDS011;27814;53.452;-6.180;2022-09-04T01:32:15;8.70;;;2.20;;
41815;SDS011;27814;53.452;-6.180;2022-09-04T01:34:59;6.72;;;2.55;;
41815;SDS011;27814;53.452;-6.180;2022-09-04T01:37:40;6.72;;;2.00;;
41815;SDS011;27814;53.452;-6.180;2022-09-04T01:40:17;6.65;;;2.00;;
41815;SDS011;27814;53.452;-6.180;2022-09-04T01:43:03;8.45;;;1.85;;
41815;SDS011;27814;53.452;-6.180;2022-09-04T01:48:37;8.55;;;1.98;;
41815;SDS011;27814;53.452;-6.180;2022-09-04T01:51:15;7.75;;;2.20;;
41815;SDS011;27814;53.452;-6.180;2022-09-04T01:53:52;6.97;;;1.83;;
41815;SDS011;27814;53.452;-6.180;2022-09-04T01:56:33;9.32;;;1.92;;
41815;SDS011;27814;53.452;-6.180;2022-09-04T01:59:13;7.45;;;2.22;;
41815;SDS011;27814;53.452;-6.180;2022-09-04T02:01:51;7.90;;;1.77;;
41815;SDS011;27814;53.452;-6.180;2022-09-04T02:04:27;5.03;;;1.50;;
41815;SDS011;27814;53.452;-6.180;2022-09-04T02:07:03;6.35;;;1.90;;
41815;SDS011;27814;53.452;-6.180;2022-09-04T02:09:42;4.97;;;1.20;;
41815;SDS011;27814;53.452;-6.180;2022-09-04T02:12:24;4.38;;;1.23;;
41815;SDS011;27814;53.452;-6.180;2022-09-04T02:15:05;5.78;;;1.83;;
41815;SDS011;27814;53.452;-6.180;2022-09-04T02:17:40;7.32;;;1.42;;
41815;SDS011;27814;53.452;-6.180;2022-09-04T02:20:20;3.63;;;1.00;;
41815;SDS011;27814;53.452;-6.180;2022-09-04T02:22:57;2.83;;;1.00;;
41815;SDS011;27814;53.452;-6.180;2022-09-04T02:25:35;4.45;;;1.25;;
41815;SDS011;27814;53.452;-6.180;2022-09-04T02:28:18;4.28;;;1.08;;
41815;SDS011;27814;53.452;-6.180;2022-09-04T02:30:55;3.55;;;1.05;;
41815;SDS011;27814;53.452;-6.180;2022-09-04T02:33:32;6.40;;;1.50;;
41815;SDS011;27814;53.452;-6.180;2022-09-04T02:36:09;4.53;;;1.42;;
41815;SDS011;27814;53.452;-6.180;2022-09-04T02:38:45;3.50;;;1.35;;
41815;SDS011;27814;53.452;-6.180;2022-09-04T02:41:24;5.18;;;1.92;;
41815;SDS011;27814;53.452;-6.180;2022-09-04T02:44:02;7.35;;;2.00;;
41815;SDS011;27814;53.452;-6.180;2022-09-04T02:46:45;10.38;;;2.38;;
41815;SDS011;27814;53.452;-6.180;2022-09-04T02:49:27;7.97;;;1.88;;
41815;SDS011;27814;53.452;-6.180;2022-09-04T02:52:04;7.03;;;1.90;;
41815;SDS011;27814;53.452;-6.180;2022-09-04T02:54:47;9.07;;;1.90;;
41815;SDS011;27814;53.452;-6.180;2022-09-04T02:57:32;12.02;;;2.20;;
41815;SDS011;27814;53.452;-6.180;2022-09-04T03:00:14;7.65;;;2.10;;
41815;SDS011;27814;53.452;-6.180;2022-09-04T03:02:49;7.30;;;2.35;;
41815;SDS011;27814;53.452;-6.180;2022-09-04T03:05:25;10.00;;;2.63;;
41815;SDS011;27814;53.452;-6.180;2022-09-04T03:07:58;11.98;;;2.72;;
41815;SDS011;27814;53.452;-6.180;2022-09-04T03:10:31;9.63;;;2.95;;
41815;SDS011;27814;53.452;-6.180;2022-09-04T03:13:06;16.17;;;3.25;;
41815;SDS011;27814;53.452;-6.180;2022-09-04T03:15:42;15.70;;;3.70;;
41815;SDS011;27814;53.452;-6.180;2022-09-04T03:18:19;12.47;;;3.20;;
41815;SDS011;27814;53.452;-6.180;2022-09-04T03:20:53;14.23;;;3.38;;
41815;SDS011;27814;53.452;-6.180;2022-09-04T03:23:27;16.25;;;3.83;;
41815;SDS011;27814;53.452;-6.180;2022-09-04T03:26:08;15.57;;;3.50;;
41815;SDS011;27814;53.452;-6.180;2022-09-04T03:28:45;12.68;;;3.35;;
41815;SDS011;27814;53.452;-6.180;2022-09-04T03:31:27;10.73;;;3.30;;
41815;SDS011;27814;53.452;-6.180;2022-09-04T03:34:03;13.93;;;3.63;;
41815;SDS011;27814;53.452;-6.180;2022-09-04T03:36:47;11.88;;;3.58;;
41815;SDS011;27814;53.452;-6.180;2022-09-04T03:39:31;14.93;;;3.30;;
41815;SDS011;27814;53.452;-6.180;2022-09-04T03:42:10;13.38;;;3.30;;
41815;SDS011;27814;53.452;-6.180;2022-09-04T03:44:47;14.77;;;2.80;;
41815;SDS011;27814;53.452;-6.180;2022-09-04T03:47:27;10.07;;;2.67;;
41815;SDS011;27814;53.452;-6.180;2022-09-04T03:50:08;13.05;;;3.38;;
41815;SDS011;27814;53.452;-6.180;2022-09-04T03:52:48;12.73;;;2.25;;
41815;SDS011;27814;53.452;-6.180;2022-09-04T03:58:41;5.18;;;0.68;;
41815;SDS011;27814;53.452;-6.180;2022-09-04T04:01:17;1.63;;;0.30;;
41815;SDS011;27814;53.452;-6.180;2022-09-04T04:03:59;1.77;;;0.30;;
41815;SDS011;27814;53.452;-6.180;2022-09-04T04:06:45;0.30;;;0.20;;
41815;SDS011;27814;53.452;-6.180;2022-09-04T04:12:20;1.42;;;0.30;;
41815;SDS011;27814;53.452;-6.180;2022-09-04T04:15:06;0.85;;;0.30;;
41815;SDS011;27814;53.452;-6.180;2022-09-04T04:17:55;0.53;;;0.20;;
41815;SDS011;27814;53.452;-6.180;2022-09-04T04:20:53;0.15;;;0.10;;
41815;SDS011;27814;53.452;-6.180;2022-09-04T04:26:32;0.20;;;0.20;;
41815;SDS011;27814;53.452;-6.180;2022-09-04T04:29:15;0.80;;;0.20;;
41815;SDS011;27814;53.452;-6.180;2022-09-04T04:32:04;0.32;;;0.20;;
41815;SDS011;27814;53.452;-6.180;2022-09-04T04:34:47;0.20;;;0.20;;
41815;SDS011;27814;53.452;-6.180;2022-09-04T04:37:30;0.60;;;0.20;;
41815;SDS011;27814;53.452;-6.180;2022-09-04T04:40:12;0.30;;;0.20;;
41815;SDS011;27814;53.452;-6.180;2022-09-04T04:42:48;1.05;;;0.25;;
41815;SDS011;27814;53.452;-6.180;2022-09-04T04:45:24;0.70;;;0.30;;
41815;SDS011;27814;53.452;-6.180;2022-09-04T04:51:10;0.90;;;0.30;;
41815;SDS011;27814;53.452;-6.180;2022-09-04T04:53:47;1.15;;;0.30;;
41815;SDS011;27814;53.452;-6.180;2022-09-04T04:56:25;0.43;;;0.30;;
41815;SDS011;27814;53.452;-6.180;2022-09-04T04:59:06;0.73;;;0.40;;
41815;SDS011;27814;53.452;-6.180;2022-09-04T05:01:49;0.60;;;0.40;;
41815;SDS011;27814;53.452;-6.180;2022-09-04T05:04:27;0.57;;;0.40;;
41815;SDS011;27814;53.452;-6.180;2022-09-04T05:07:06;0.40;;;0.25;;
41815;SDS011;27814;53.452;-6.180;2022-09-04T05:09:42;0.52;;;0.32;;
41815;SDS011;27814;53.452;-6.180;2022-09-04T05:12:19;0.70;;;0.30;;
41815;SDS011;27814;53.452;-6.180;2022-09-04T05:14:57;0.60;;;0.20;;
41815;SDS011;27814;53.452;-6.180;2022-09-04T05:17:33;0.50;;;0.30;;
41815;SDS011;27814;53.452;-6.180;2022-09-04T05:23:03;0.40;;;0.40;;
41815;SDS011;27814;53.452;-6.180;2022-09-04T05:25:39;0.75;;;0.40;;
41815;SDS011;27814;53.452;-6.180;2022-09-04T05:28:18;0.40;;;0.33;;
41815;SDS011;27814;53.452;-6.180;2022-09-04T05:30:55;0.30;;;0.30;;
41815;SDS011;27814;53.452;-6.180;2022-09-04T05:33:33;1.33;;;0.40;;
41815;SDS011;27814;53.452;-6.180;2022-09-04T05:36:08;1.35;;;0.40;;
41815;SDS011;27814;53.452;-6.180;2022-09-04T05:38:45;1.10;;;0.40;;
41815;SDS011;27814;53.452;-6.180;2022-09-04T05:41:28;0.40;;;0.40;;
41815;SDS011;27814;53.452;-6.180;2022-09-04T05:44:09;1.40;;;0.40;;
41815;SDS011;27814;53.452;-6.180;2022-09-04T05:46:58;0.50;;;0.30;;
41815;SDS011;27814;53.452;-6.180;2022-09-04T05:49:41;0.20;;;0.20;;
41815;SDS011;27814;53.452;-6.180;2022-09-04T05:52:28;1.50;;;0.40;;
41815;SDS011;27814;53.452;-6.180;2022-09-04T05:55:14;0.35;;;0.20;;
41815;SDS011;27814;53.452;-6.180;2022-09-04T05:58:06;1.00;;;0.30;;
41815;SDS011;27814;53.452;-6.180;2022-09-04T06:00:55;0.65;;;0.40;;
41815;SDS011;27814;53.452;-6.180;2022-09-04T06:03:36;0.82;;;0.40;;
41815;SDS011;27814;53.452;-6.180;2022-09-04T06:06:34;0.80;;;0.20;;
41815;SDS011;27814;53.452;-6.180;2022-09-04T06:09:22;0.98;;;0.32;;
41815;SDS011;27814;53.452;-6.180;2022-09-04T06:12:12;0.55;;;0.30;;
41815;SDS011;27814;53.452;-6.180;2022-09-04T06:15:05;3.03;;;0.68;;
41815;SDS011;27814;53.452;-6.180;2022-09-04T06:18:05;0.50;;;0.30;;
41815;SDS011;27814;53.452;-6.180;2022-09-04T06:21:03;0.88;;;0.30;;
41815;SDS011;27814;53.452;-6.180;2022-09-04T06:23:46;1.05;;;0.30;;
41815;SDS011;27814;53.452;-6.180;2022-09-04T06:26:41;0.50;;;0.30;;
41815;SDS011;27814;53.452;-6.180;2022-09-04T06:29:30;0.80;;;0.20;;
41815;SDS011;27814;53.452;-6.180;2022-09-04T06:32:24;0.60;;;0.20;;
41815;SDS011;27814;53.452;-6.180;2022-09-04T06:38:12;0.30;;;0.20;;
41815;SDS011;27814;53.452;-6.180;2022-09-04T06:40:56;0.90;;;0.30;;
41815;SDS011;27814;53.452;-6.180;2022-09-04T06:43:35;31.48;;;24.92;;
41815;SDS011;27814;53.452;-6.180;2022-09-04T06:46:15;2.55;;;0.95;;
41815;SDS011;27814;53.452;-6.180;2022-09-04T06:48:53;0.65;;;0.40;;
41815;SDS011;27814;53.452;-6.180;2022-09-04T06:51:39;0.80;;;0.32;;
41815;SDS011;27814;53.452;-6.180;2022-09-04T06:54:23;0.43;;;0.20;;
41815;SDS011;27814;53.452;-6.180;2022-09-04T06:57:06;1.42;;;0.45;;
41815;SDS011;27814;53.452;-6.180;2022-09-04T06:59:58;1.60;;;0.40;;
41815;SDS011;27814;53.452;-6.180;2022-09-04T07:02:36;1.50;;;0.22;;
41815;SDS011;27814;53.452;-6.180;2022-09-04T07:05:26;1.30;;;0.20;;
41815;SDS011;27814;53.452;-6.180;2022-09-04T07:08:02;1.00;;;0.30;;
41815;SDS011;27814;53.452;-6.180;2022-09-04T07:10:39;2.90;;;0.50;;
41815;SDS011;27814;53.452;-6.180;2022-09-04T07:13:23;1.42;;;0.40;;
41815;SDS011;27814;53.452;-6.180;2022-09-04T07:16:15;1.90;;;0.30;;
41815;SDS011;27814;53.452;-6.180;2022-09-04T07:19:04;0.95;;;0.20;;
41815;SDS011;27814;53.452;-6.180;2022-09-04T07:22:04;1.73;;;0.30;;
41815;SDS011;27814;53.452;-6.180;2022-09-04T07:24:55;2.80;;;0.30;;
41815;SDS011;27814;53.452;-6.180;2022-09-04T07:27:37;1.30;;;0.22;;
41815;SDS011;27814;53.452;-6.180;2022-09-04T07:30:21;0.60;;;0.15;;
41815;SDS011;27814;53.452;-6.180;2022-09-04T07:32:53;0.20;;;0.10;;
41815;SDS011;27814;53.452;-6.180;2022-09-04T07:35:27;0.37;;;0.10;;
41815;SDS011;27814;53.452;-6.180;2022-09-04T07:38:03;0.32;;;0.10;;
41815;SDS011;27814;53.452;-6.180;2022-09-04T07:40:42;0.60;;;0.20;;
41815;SDS011;27814;53.452;-6.180;2022-09-04T07:43:17;1.10;;;0.20;;
41815;SDS011;27814;53.452;-6.180;2022-09-04T07:45:51;1.70;;;0.20;;
41815;SDS011;27814;53.452;-6.180;2022-09-04T07:48:31;0.38;;;0.20;;
41815;SDS011;27814;53.452;-6.180;2022-09-04T07:51:05;1.38;;;0.30;;
41815;SDS011;27814;53.452;-6.180;2022-09-04T07:53:43;0.80;;;0.20;;
41815;SDS011;27814;53.452;-6.180;2022-09-04T07:56:51;0.85;;;0.30;;
41815;SDS011;27814;53.452;-6.180;2022-09-04T08:02:46;1.02;;;0.30;;
41815;SDS011;27814;53.452;-6.180;2022-09-04T08:05:30;1.55;;;0.20;;
41815;SDS011;27814;53.452;-6.180;2022-09-04T08:08:04;0.25;;;0.15;;
41815;SDS011;27814;53.452;-6.180;2022-09-04T08:13:46;1.20;;;0.30;;
41815;SDS011;27814;53.452;-6.180;2022-09-04T08:16:39;0.98;;;0.20;;
41815;SDS011;27814;53.452;-6.180;2022-09-04T08:19:14;0.20;;;0.10;;
41815;SDS011;27814;53.452;-6.180;2022-09-04T08:21:55;2.70;;;0.20;;
41815;SDS011;27814;53.452;-6.180;2022-09-04T08:24:31;0.40;;;0.20;;
41815;SDS011;27814;53.452;-6.180;2022-09-04T08:27:39;0.60;;;0.30;;
41815;SDS011;27814;53.452;-6.180;2022-09-04T08:30:28;1.30;;;0.30;;
41815;SDS011;27814;53.452;-6.180;2022-09-04T08:33:11;0.80;;;0.20;;
41815;SDS011;27814;53.452;-6.180;2022-09-04T08:35:51;0.77;;;0.20;;
41815;SDS011;27814;53.452;-6.180;2022-09-04T08:38:35;2.15;;;0.30;;
41815;SDS011;27814;53.452;-6.180;2022-09-04T08:44:39;0.63;;;0.28;;
41815;SDS011;27814;53.452;-6.180;2022-09-04T08:56:46;1.40;;;0.22;;
41815;SDS011;27814;53.452;-6.180;2022-09-04T08:59:43;2.00;;;0.30;;
41815;SDS011;27814;53.452;-6.180;2022-09-04T09:02:47;1.27;;;0.30;;
41815;SDS011;27814;53.452;-6.180;2022-09-04T09:09:13;1.07;;;0.20;;
41815;SDS011;27814;53.452;-6.180;2022-09-04T09:15:09;2.90;;;0.60;;
41815;SDS011;27814;53.452;-6.180;2022-09-04T09:17:59;1.07;;;0.30;;
41815;SDS011;27814;53.452;-6.180;2022-09-04T09:20:34;1.60;;;0.50;;
41815;SDS011;27814;53.452;-6.180;2022-09-04T09:23:16;1.88;;;0.20;;
41815;SDS011;27814;53.452;-6.180;2022-09-04T09:25:48;1.38;;;0.30;;
41815;SDS011;27814;53.452;-6.180;2022-09-04T09:34:47;1.87;;;0.47;;
41815;SDS011;27814;53.452;-6.180;2022-09-04T09:40:54;1.35;;;0.30;;
41815;SDS011;27814;53.452;-6.180;2022-09-04T09:47:04;0.83;;;0.30;;
41815;SDS011;27814;53.452;-6.180;2022-09-04T09:50:05;2.50;;;0.50;;
41815;SDS011;27814;53.452;-6.180;2022-09-04T09:59:50;0.82;;;0.20;;
41815;SDS011;27814;53.452;-6.180;2022-09-04T10:09:19;2.38;;;0.50;;
41815;SDS011;27814;53.452;-6.180;2022-09-04T10:15:14;2.53;;;0.35;;
41815;SDS011;27814;53.452;-6.180;2022-09-04T10:18:19;3.67;;;0.80;;
41815;SDS011;27814;53.452;-6.180;2022-09-04T10:27:51;4.00;;;0.88;;
41815;SDS011;27814;53.452;-6.180;2022-09-04T10:31:02;4.10;;;0.50;;
41815;SDS011;27814;53.452;-6.180;2022-09-04T10:33:59;3.72;;;0.65;;
41815;SDS011;27814;53.452;-6.180;2022-09-04T10:36:41;3.67;;;0.90;;
41815;SDS011;27814;53.452;-6.180;2022-09-04T10:39:22;5.85;;;0.90;;
41815;SDS011;27814;53.452;-6.180;2022-09-04T10:42:19;4.45;;;1.23;;
41815;SDS011;27814;53.452;-6.180;2022-09-04T10:45:03;4.15;;;0.80;;
41815;SDS011;27814;53.452;-6.180;2022-09-04T10:47:52;2.85;;;0.70;;
41815;SDS011;27814;53.452;-6.180;2022-09-04T10:53:57;4.25;;;0.80;;
41815;SDS011;27814;53.452;-6.180;2022-09-04T10:56:44;2.27;;;0.60;;
41815;SDS011;27814;53.452;-6.180;2022-09-04T10:59:29;3.47;;;0.70;;
41815;SDS011;27814;53.452;-6.180;2022-09-04T11:05:32;1.98;;;0.55;;
41815;SDS011;27814;53.452;-6.180;2022-09-04T11:08:15;2.45;;;0.68;;
41815;SDS011;27814;53.452;-6.180;2022-09-04T11:14:06;5.40;;;0.80;;
41815;SDS011;27814;53.452;-6.180;2022-09-04T11:20:16;2.53;;;0.75;;
41815;SDS011;27814;53.452;-6.180;2022-09-04T11:26:47;3.10;;;0.68;;
41815;SDS011;27814;53.452;-6.180;2022-09-04T11:29:57;3.20;;;0.63;;
41815;SDS011;27814;53.452;-6.180;2022-09-04T11:32:46;2.35;;;0.40;;
41815;SDS011;27814;53.452;-6.180;2022-09-04T11:35:49;5.25;;;0.75;;
41815;SDS011;27814;53.452;-6.180;2022-09-04T11:38:43;5.90;;;1.30;;
41815;SDS011;27814;53.452;-6.180;2022-09-04T11:41:42;5.13;;;0.90;;
41815;SDS011;27814;53.452;-6.180;2022-09-04T11:44:33;4.40;;;0.63;;
41815;SDS011;27814;53.452;-6.180;2022-09-04T11:47:50;6.10;;;0.80;;
41815;SDS011;27814;53.452;-6.180;2022-09-04T11:53:50;7.57;;;0.73;;
41815;SDS011;27814;53.452;-6.180;2022-09-04T11:56:45;3.60;;;0.63;;
41815;SDS011;27814;53.452;-6.180;2022-09-04T12:05:34;6.38;;;1.00;;
41815;SDS011;27814;53.452;-6.180;2022-09-04T12:08:21;5.45;;;0.77;;
41815;SDS011;27814;53.452;-6.180;2022-09-04T12:11:09;4.88;;;0.80;;
41815;SDS011;27814;53.452;-6.180;2022-09-04T12:14:01;4.13;;;0.70;;
41815;SDS011;27814;53.452;-6.180;2022-09-04T12:16:47;4.50;;;1.05;;
41815;SDS011;27814;53.452;-6.180;2022-09-04T12:26:18;3.10;;;0.70;;
41815;SDS011;27814;53.452;-6.180;2022-09-04T12:29:03;3.85;;;0.75;;
41815;SDS011;27814;53.452;-6.180;2022-09-04T12:35:15;3.03;;;0.90;;
41815;SDS011;27814;53.452;-6.180;2022-09-04T12:41:12;6.57;;;0.73;;
41815;SDS011;27814;53.452;-6.180;2022-09-04T12:43:54;6.88;;;0.88;;
41815;SDS011;27814;53.452;-6.180;2022-09-04T12:46:42;4.28;;;0.63;;
41815;SDS011;27814;53.452;-6.180;2022-09-04T12:49:35;6.25;;;1.08;;
41815;SDS011;27814;53.452;-6.180;2022-09-04T12:52:18;4.38;;;0.70;;
41815;SDS011;27814;53.452;-6.180;2022-09-04T12:54:55;5.28;;;1.30;;
41815;SDS011;27814;53.452;-6.180;2022-09-04T12:57:33;3.95;;;0.80;;
41815;SDS011;27814;53.452;-6.180;2022-09-04T13:00:12;6.80;;;1.00;;
41815;SDS011;27814;53.452;-6.180;2022-09-04T13:02:45;6.43;;;1.00;;
41815;SDS011;27814;53.452;-6.180;2022-09-04T13:05:29;4.95;;;0.85;;
41815;SDS011;27814;53.452;-6.180;2022-09-04T13:08:22;5.13;;;0.63;;
41815;SDS011;27814;53.452;-6.180;2022-09-04T13:11:00;3.45;;;0.60;;
41815;SDS011;27814;53.452;-6.180;2022-09-04T13:13:42;4.90;;;0.70;;
41815;SDS011;27814;53.452;-6.180;2022-09-04T13:16:21;3.80;;;0.85;;
41815;SDS011;27814;53.452;-6.180;2022-09-04T13:18:59;2.67;;;0.60;;
41815;SDS011;27814;53.452;-6.180;2022-09-04T13:21:48;3.75;;;0.70;;
41815;SDS011;27814;53.452;-6.180;2022-09-04T13:24:33;4.22;;;0.70;;
41815;SDS011;27814;53.452;-6.180;2022-09-04T13:27:22;3.30;;;0.73;;
41815;SDS011;27814;53.452;-6.180;2022-09-04T13:30:07;6.78;;;0.57;;
41815;SDS011;27814;53.452;-6.180;2022-09-04T13:35:38;2.33;;;0.35;;
41815;SDS011;27814;53.452;-6.180;2022-09-04T13:38:27;2.63;;;0.50;;
41815;SDS011;27814;53.452;-6.180;2022-09-04T13:41:14;2.53;;;0.50;;
41815;SDS011;27814;53.452;-6.180;2022-09-04T13:44:00;3.67;;;0.60;;
41815;SDS011;27814;53.452;-6.180;2022-09-04T13:46:51;3.67;;;0.80;;
41815;SDS011;27814;53.452;-6.180;2022-09-04T13:49:28;4.85;;;0.60;;
41815;SDS011;27814;53.452;-6.180;2022-09-04T13:52:04;5.35;;;0.70;;
41815;SDS011;27814;53.452;-6.180;2022-09-04T13:54:37;1.98;;;0.45;;
41815;SDS011;27814;53.452;-6.180;2022-09-04T13:57:12;2.22;;;0.52;;
41815;SDS011;27814;53.452;-6.180;2022-09-04T13:59:43;4.00;;;0.50;;
41815;SDS011;27814;53.452;-6.180;2022-09-04T14:02:16;4.35;;;0.47;;
41815;SDS011;27814;53.452;-6.180;2022-09-04T14:04:51;2.97;;;0.50;;
41815;SDS011;27814;53.452;-6.180;2022-09-04T14:07:23;3.42;;;0.55;;
41815;SDS011;27814;53.452;-6.180;2022-09-04T14:09:58;5.15;;;0.77;;
41815;SDS011;27814;53.452;-6.180;2022-09-04T14:12:33;2.03;;;0.40;;
41815;SDS011;27814;53.452;-6.180;2022-09-04T14:15:24;2.67;;;0.52;;
41815;SDS011;27814;53.452;-6.180;2022-09-04T14:21:02;3.70;;;0.60;;
41815;SDS011;27814;53.452;-6.180;2022-09-04T14:23:40;2.67;;;0.60;;
41815;SDS011;27814;53.452;-6.180;2022-09-04T14:26:18;2.83;;;0.85;;
41815;SDS011;27814;53.452;-6.180;2022-09-04T14:28:57;1.38;;;0.52;;
41815;SDS011;27814;53.452;-6.180;2022-09-04T14:31:33;0.97;;;0.17;;
41815;SDS011;27814;53.452;-6.180;2022-09-04T14:34:15;1.98;;;0.38;;
41815;SDS011;27814;53.452;-6.180;2022-09-04T14:36:56;2.65;;;0.70;;
41815;SDS011;27814;53.452;-6.180;2022-09-04T14:39:34;4.70;;;0.40;;
41815;SDS011;27814;53.452;-6.180;2022-09-04T14:42:13;2.22;;;0.50;;
41815;SDS011;27814;53.452;-6.180;2022-09-04T14:44:57;1.63;;;0.20;;
41815;SDS011;27814;53.452;-6.180;2022-09-04T14:47:40;2.33;;;0.50;;
41815;SDS011;27814;53.452;-6.180;2022-09-04T14:50:13;1.30;;;0.20;;
41815;SDS011;27814;53.452;-6.180;2022-09-04T14:52:46;1.70;;;0.60;;
41815;SDS011;27814;53.452;-6.180;2022-09-04T14:55:22;0.40;;;0.25;;
41815;SDS011;27814;53.452;-6.180;2022-09-04T14:57:53;1.50;;;0.30;;
41815;SDS011;27814;53.452;-6.180;2022-09-04T15:00:25;1.42;;;0.30;;
41815;SDS011;27814;53.452;-6.180;2022-09-04T15:02:57;5.47;;;0.57;;
41815;SDS011;27814;53.452;-6.180;2022-09-04T15:05:32;2.45;;;0.30;;
41815;SDS011;27814;53.452;-6.180;2022-09-04T15:08:06;2.38;;;0.50;;
41815;SDS011;27814;53.452;-6.180;2022-09-04T15:10:45;1.13;;;0.38;;
41815;SDS011;27814;53.452;-6.180;2022-09-04T15:19:19;6.50;;;0.80;;
41815;SDS011;27814;53.452;-6.180;2022-09-04T15:21:56;5.85;;;0.70;;
41815;SDS011;27814;53.452;-6.180;2022-09-04T15:24:33;4.88;;;0.80;;
41815;SDS011;27814;53.452;-6.180;2022-09-04T15:27:09;5.10;;;0.93;;
41815;SDS011;27814;53.452;-6.180;2022-09-04T15:29:48;4.93;;;0.90;;
41815;SDS011;27814;53.452;-6.180;2022-09-04T15:32:30;3.58;;;0.50;;
41815;SDS011;27814;53.452;-6.180;2022-09-04T15:35:06;1.95;;;0.75;;
41815;SDS011;27814;53.452;-6.180;2022-09-04T15:37:40;2.10;;;0.30;;
41815;SDS011;27814;53.452;-6.180;2022-09-04T15:40:19;4.95;;;0.85;;
41815;SDS011;27814;53.452;-6.180;2022-09-04T15:42:55;3.65;;;0.50;;
41815;SDS011;27814;53.452;-6.180;2022-09-04T15:45:31;3.17;;;0.60;;
41815;SDS011;27814;53.452;-6.180;2022-09-04T15:48:19;2.45;;;0.50;;
41815;SDS011;27814;53.452;-6.180;2022-09-04T15:53:49;2.40;;;0.47;;
41815;SDS011;27814;53.452;-6.180;2022-09-04T15:56:36;2.17;;;0.50;;
41815;SDS011;27814;53.452;-6.180;2022-09-04T15:59:11;4.53;;;0.60;;
41815;SDS011;27814;53.452;-6.180;2022-09-04T16:01:46;2.17;;;0.50;;
41815;SDS011;27814;53.452;-6.180;2022-09-04T16:04:24;3.33;;;0.68;;
41815;SDS011;27814;53.452;-6.180;2022-09-04T16:07:15;2.53;;;0.60;;
41815;SDS011;27814;53.452;-6.180;2022-09-04T16:10:06;4.28;;;0.50;;
41815;SDS011;27814;53.452;-6.180;2022-09-04T16:12:47;3.95;;;0.60;;
41815;SDS011;27814;53.452;-6.180;2022-09-04T16:15:18;2.78;;;0.50;;
41815;SDS011;27814;53.452;-6.180;2022-09-04T16:17:53;3.85;;;0.77;;
41815;SDS011;27814;53.452;-6.180;2022-09-04T16:20:24;2.78;;;0.45;;
41815;SDS011;27814;53.452;-6.180;2022-09-04T16:23:01;2.40;;;0.50;;
41815;SDS011;27814;53.452;-6.180;2022-09-04T16:25:34;3.00;;;0.60;;
41815;SDS011;27814;53.452;-6.180;2022-09-04T16:28:10;5.00;;;0.63;;
41815;SDS011;27814;53.452;-6.180;2022-09-04T16:30:45;3.17;;;0.50;;
41815;SDS011;27814;53.452;-6.180;2022-09-04T16:33:19;2.30;;;0.40;;
41815;SDS011;27814;53.452;-6.180;2022-09-04T16:35:56;1.70;;;0.60;;
41815;SDS011;27814;53.452;-6.180;2022-09-04T16:38:27;2.00;;;0.30;;
41815;SDS011;27814;53.452;-6.180;2022-09-04T16:40:59;3.55;;;0.50;;
41815;SDS011;27814;53.452;-6.180;2022-09-04T16:43:36;2.78;;;0.52;;
41815;SDS011;27814;53.452;-6.180;2022-09-04T16:46:07;3.25;;;0.40;;
41815;SDS011;27814;53.452;-6.180;2022-09-04T16:48:44;3.35;;;0.55;;
41815;SDS011;27814;53.452;-6.180;2022-09-04T16:51:21;4.72;;;0.50;;
41815;SDS011;27814;53.452;-6.180;2022-09-04T16:54:07;3.38;;;0.47;;
41815;SDS011;27814;53.452;-6.180;2022-09-04T16:56:43;2.75;;;0.40;;
41815;SDS011;27814;53.452;-6.180;2022-09-04T16:59:40;4.17;;;0.63;;
41815;SDS011;27814;53.452;-6.180;2022-09-04T17:02:15;4.07;;;0.40;;
41815;SDS011;27814;53.452;-6.180;2022-09-04T17:04:53;2.37;;;0.60;;
41815;SDS011;27814;53.452;-6.180;2022-09-04T17:07:29;2.38;;;0.40;;
41815;SDS011;27814;53.452;-6.180;2022-09-04T17:10:06;4.07;;;0.80;;
41815;SDS011;27814;53.452;-6.180;2022-09-04T17:12:42;5.32;;;0.50;;
41815;SDS011;27814;53.452;-6.180;2022-09-04T17:15:19;2.25;;;0.50;;
41815;SDS011;27814;53.452;-6.180;2022-09-04T17:17:53;3.85;;;0.50;;
41815;SDS011;27814;53.452;-6.180;2022-09-04T17:20:25;3.83;;;0.70;;
41815;SDS011;27814;53.452;-6.180;2022-09-04T17:23:17;2.40;;;0.80;;
41815;SDS011;27814;53.452;-6.180;2022-09-04T17:26:10;2.97;;;0.98;;
41815;SDS011;27814;53.452;-6.180;2022-09-04T17:29:00;3.35;;;0.90;;
41815;SDS011;27814;53.452;-6.180;2022-09-04T17:31:58;6.70;;;1.45;;
41815;SDS011;27814;53.452;-6.180;2022-09-04T17:34:53;5.45;;;0.60;;
41815;SDS011;27814;53.452;-6.180;2022-09-04T17:37:47;1.87;;;0.40;;
41815;SDS011;27814;53.452;-6.180;2022-09-04T17:40:45;3.83;;;0.80;;
41815;SDS011;27814;53.452;-6.180;2022-09-04T17:44:02;3.35;;;0.82;;
41815;SDS011;27814;53.452;-6.180;2022-09-04T17:46:53;7.82;;;1.30;;
41815;SDS011;27814;53.452;-6.180;2022-09-04T17:49:32;4.13;;;0.90;;
41815;SDS011;27814;53.452;-6.180;2022-09-04T17:52:03;3.92;;;0.82;;
41815;SDS011;27814;53.452;-6.180;2022-09-04T17:54:36;2.80;;;0.88;;
41815;SDS011;27814;53.452;-6.180;2022-09-04T17:57:17;3.92;;;0.70;;
41815;SDS011;27814;53.452;-6.180;2022-09-04T17:59:53;2.60;;;0.50;;
41815;SDS011;27814;53.452;-6.180;2022-09-04T18:02:29;1.77;;;0.40;;
41815;SDS011;27814;53.452;-6.180;2022-09-04T18:05:11;2.33;;;0.50;;
41815;SDS011;27814;53.452;-6.180;2022-09-04T18:07:46;4.43;;;0.80;;
41815;SDS011;27814;53.452;-6.180;2022-09-04T18:10:37;2.53;;;0.60;;
41815;SDS011;27814;53.452;-6.180;2022-09-04T18:13:20;1.95;;;0.40;;
41815;SDS011;27814;53.452;-6.180;2022-09-04T18:16:06;2.78;;;0.80;;
41815;SDS011;27814;53.452;-6.180;2022-09-04T18:18:44;1.40;;;0.40;;
41815;SDS011;27814;53.452;-6.180;2022-09-04T18:21:16;2.10;;;0.75;;
41815;SDS011;27814;53.452;-6.180;2022-09-04T18:23:51;5.05;;;0.50;;